Westby, North Dakota
Current Conditions -  °F | °C
As of 11:52 AM on Friday 24 Oct 2014 (Local Time) from KISN Reporting Station
Clear Clear  
Wind Chill: 61°   Ceiling: Unl
Heat Index: 61°   Visibility: 10mi
Dew Point: 35°   Wind: 23mph
Humidity: 38%   Direction: 280°W
Pressure: 29.91"   Gusts: 32mph
Location:  48.5901°N, 103.922°W
Report Text: KISN 241652Z AUTO 28020G28KT 10SM CLR 16/02 A2991 RMK AO2 PK WND 27028/1647 SLP134 T01610017
Loading
Personal Weather Stations






























Interactive Weather Map New forecast layout! Learn more

10-Day Weather Forecast

Advertisements
Track Severe Weather on mobile